sensor_id;sensor_type;location;lat;lon;timestamp;P1;durP1;ratioP1;P2;durP2;ratioP2
80195;SDS011;69516;42.050;21.516;2023-04-25T00:01:47;9.90;;;5.70;;
80195;SDS011;69516;42.050;21.516;2023-04-25T00:04:13;10.95;;;6.10;;
80195;SDS011;69516;42.050;21.516;2023-04-25T00:06:40;9.85;;;6.20;;
80195;SDS011;69516;42.050;21.516;2023-04-25T00:09:06;10.80;;;6.20;;
80195;SDS011;69516;42.050;21.516;2023-04-25T00:11:34;9.95;;;6.20;;
80195;SDS011;69516;42.050;21.516;2023-04-25T00:14:00;8.88;;;6.40;;
80195;SDS011;69516;42.050;21.516;2023-04-25T00:16:27;8.68;;;6.38;;
80195;SDS011;69516;42.050;21.516;2023-04-25T00:18:54;9.48;;;6.40;;
80195;SDS011;69516;42.050;21.516;2023-04-25T00:21:20;10.45;;;7.13;;
80195;SDS011;69516;42.050;21.516;2023-04-25T00:23:47;11.60;;;8.23;;
80195;SDS011;69516;42.050;21.516;2023-04-25T00:26:13;13.32;;;8.13;;
80195;SDS011;69516;42.050;21.516;2023-04-25T00:28:40;13.50;;;8.50;;
80195;SDS011;69516;42.050;21.516;2023-04-25T00:31:06;11.50;;;8.35;;
80195;SDS011;69516;42.050;21.516;2023-04-25T00:33:32;11.30;;;7.68;;
80195;SDS011;69516;42.050;21.516;2023-04-25T00:35:58;11.73;;;8.18;;
80195;SDS011;69516;42.050;21.516;2023-04-25T00:38:24;12.85;;;8.20;;
80195;SDS011;69516;42.050;21.516;2023-04-25T00:40:50;11.07;;;7.00;;
80195;SDS011;69516;42.050;21.516;2023-04-25T00:43:17;9.13;;;6.47;;
80195;SDS011;69516;42.050;21.516;2023-04-25T00:45:44;8.45;;;6.30;;
80195;SDS011;69516;42.050;21.516;2023-04-25T00:48:13;9.73;;;6.45;;
80195;SDS011;69516;42.050;21.516;2023-04-25T00:50:40;10.32;;;6.65;;
80195;SDS011;69516;42.050;21.516;2023-04-25T00:53:06;9.10;;;6.32;;
80195;SDS011;69516;42.050;21.516;2023-04-25T00:58:01;10.55;;;7.00;;
80195;SDS011;69516;42.050;21.516;2023-04-25T01:00:27;10.77;;;7.53;;
80195;SDS011;69516;42.050;21.516;2023-04-25T01:02:53;14.00;;;8.63;;
80195;SDS011;69516;42.050;21.516;2023-04-25T01:05:19;13.13;;;8.93;;
80195;SDS011;69516;42.050;21.516;2023-04-25T01:07:46;13.85;;;9.25;;
80195;SDS011;69516;42.050;21.516;2023-04-25T01:10:12;14.35;;;9.45;;
80195;SDS011;69516;42.050;21.516;2023-04-25T01:12:38;13.82;;;8.90;;
80195;SDS011;69516;42.050;21.516;2023-04-25T01:15:05;16.63;;;10.70;;
80195;SDS011;69516;42.050;21.516;2023-04-25T01:17:31;15.15;;;10.43;;
80195;SDS011;69516;42.050;21.516;2023-04-25T01:19:58;16.27;;;10.50;;
80195;SDS011;69516;42.050;21.516;2023-04-25T01:22:24;16.38;;;11.02;;
80195;SDS011;69516;42.050;21.516;2023-04-25T01:24:51;15.23;;;10.48;;
80195;SDS011;69516;42.050;21.516;2023-04-25T01:27:17;14.98;;;10.38;;
80195;SDS011;69516;42.050;21.516;2023-04-25T01:29:43;17.55;;;10.88;;
80195;SDS011;69516;42.050;21.516;2023-04-25T01:32:10;15.05;;;10.85;;
80195;SDS011;69516;42.050;21.516;2023-04-25T01:34:36;16.20;;;10.55;;
80195;SDS011;69516;42.050;21.516;2023-04-25T01:37:02;15.82;;;9.90;;
80195;SDS011;69516;42.050;21.516;2023-04-25T01:39:28;15.93;;;11.13;;
80195;SDS011;69516;42.050;21.516;2023-04-25T01:41:54;16.02;;;10.93;;
80195;SDS011;69516;42.050;21.516;2023-04-25T01:44:20;15.27;;;11.00;;
80195;SDS011;69516;42.050;21.516;2023-04-25T01:46:46;16.52;;;11.23;;
80195;SDS011;69516;42.050;21.516;2023-04-25T01:49:12;16.20;;;10.43;;
80195;SDS011;69516;42.050;21.516;2023-04-25T01:51:39;15.55;;;10.52;;
80195;SDS011;69516;42.050;21.516;2023-04-25T01:54:05;15.88;;;10.77;;
80195;SDS011;69516;42.050;21.516;2023-04-25T01:56:32;16.33;;;10.73;;
80195;SDS011;69516;42.050;21.516;2023-04-25T01:58:58;16.65;;;11.18;;
80195;SDS011;69516;42.050;21.516;2023-04-25T02:01:24;15.60;;;10.35;;
80195;SDS011;69516;42.050;21.516;2023-04-25T02:03:50;18.17;;;11.40;;
80195;SDS011;69516;42.050;21.516;2023-04-25T02:06:17;19.45;;;11.90;;
80195;SDS011;69516;42.050;21.516;2023-04-25T02:08:43;18.95;;;11.75;;
80195;SDS011;69516;42.050;21.516;2023-04-25T02:11:09;16.65;;;11.88;;
80195;SDS011;69516;42.050;21.516;2023-04-25T02:13:35;20.15;;;12.90;;
80195;SDS011;69516;42.050;21.516;2023-04-25T02:16:01;19.70;;;12.93;;
80195;SDS011;69516;42.050;21.516;2023-04-25T02:18:27;23.70;;;14.77;;
80195;SDS011;69516;42.050;21.516;2023-04-25T02:20:53;24.10;;;15.93;;
80195;SDS011;69516;42.050;21.516;2023-04-25T02:23:19;21.33;;;13.93;;
80195;SDS011;69516;42.050;21.516;2023-04-25T02:25:45;22.10;;;14.20;;
80195;SDS011;69516;42.050;21.516;2023-04-25T02:28:12;22.88;;;14.52;;
80195;SDS011;69516;42.050;21.516;2023-04-25T02:30:38;22.52;;;14.15;;
80195;SDS011;69516;42.050;21.516;2023-04-25T02:33:04;24.15;;;13.80;;
80195;SDS011;69516;42.050;21.516;2023-04-25T02:35:30;19.33;;;12.23;;
80195;SDS011;69516;42.050;21.516;2023-04-25T02:37:56;16.83;;;11.23;;
80195;SDS011;69516;42.050;21.516;2023-04-25T02:40:22;17.27;;;11.27;;
80195;SDS011;69516;42.050;21.516;2023-04-25T02:42:48;16.70;;;10.70;;
80195;SDS011;69516;42.050;21.516;2023-04-25T02:45:14;13.93;;;9.95;;
80195;SDS011;69516;42.050;21.516;2023-04-25T02:47:40;13.02;;;8.60;;
80195;SDS011;69516;42.050;21.516;2023-04-25T02:50:06;13.70;;;8.13;;
80195;SDS011;69516;42.050;21.516;2023-04-25T02:52:32;11.20;;;7.57;;
80195;SDS011;69516;42.050;21.516;2023-04-25T02:54:59;11.48;;;7.25;;
80195;SDS011;69516;42.050;21.516;2023-04-25T02:57:25;12.70;;;7.65;;
80195;SDS011;69516;42.050;21.516;2023-04-25T02:59:51;8.70;;;5.50;;
80195;SDS011;69516;42.050;21.516;2023-04-25T03:02:17;7.40;;;4.53;;
80195;SDS011;69516;42.050;21.516;2023-04-25T03:04:43;8.00;;;4.97;;
80195;SDS011;69516;42.050;21.516;2023-04-25T03:07:09;10.68;;;5.88;;
80195;SDS011;69516;42.050;21.516;2023-04-25T03:09:35;8.80;;;5.53;;
80195;SDS011;69516;42.050;21.516;2023-04-25T03:12:01;11.10;;;6.82;;
80195;SDS011;69516;42.050;21.516;2023-04-25T03:14:27;9.85;;;5.85;;
80195;SDS011;69516;42.050;21.516;2023-04-25T03:16:53;8.68;;;5.38;;
80195;SDS011;69516;42.050;21.516;2023-04-25T03:19:19;10.27;;;6.53;;
80195;SDS011;69516;42.050;21.516;2023-04-25T03:21:45;13.80;;;6.03;;
80195;SDS011;69516;42.050;21.516;2023-04-25T03:24:12;10.70;;;6.10;;
80195;SDS011;69516;42.050;21.516;2023-04-25T03:26:38;11.23;;;6.88;;
80195;SDS011;69516;42.050;21.516;2023-04-25T03:29:04;11.43;;;7.80;;
80195;SDS011;69516;42.050;21.516;2023-04-25T03:31:30;9.38;;;5.60;;
80195;SDS011;69516;42.050;21.516;2023-04-25T03:33:56;9.90;;;6.75;;
80195;SDS011;69516;42.050;21.516;2023-04-25T03:36:22;12.75;;;7.05;;
80195;SDS011;69516;42.050;21.516;2023-04-25T03:38:48;9.90;;;6.38;;
80195;SDS011;69516;42.050;21.516;2023-04-25T03:41:15;10.25;;;6.97;;
80195;SDS011;69516;42.050;21.516;2023-04-25T03:43:41;11.15;;;8.00;;
80195;SDS011;69516;42.050;21.516;2023-04-25T03:46:07;11.45;;;7.50;;
80195;SDS011;69516;42.050;21.516;2023-04-25T03:48:33;11.55;;;7.53;;
80195;SDS011;69516;42.050;21.516;2023-04-25T03:50:59;11.90;;;7.82;;
80195;SDS011;69516;42.050;21.516;2023-04-25T03:53:25;12.07;;;8.00;;
80195;SDS011;69516;42.050;21.516;2023-04-25T03:55:51;13.23;;;8.70;;
80195;SDS011;69516;42.050;21.516;2023-04-25T03:58:17;14.85;;;8.60;;
80195;SDS011;69516;42.050;21.516;2023-04-25T04:00:43;18.65;;;10.07;;
80195;SDS011;69516;42.050;21.516;2023-04-25T04:03:09;11.27;;;7.63;;
80195;SDS011;69516;42.050;21.516;2023-04-25T04:05:36;10.63;;;7.22;;
80195;SDS011;69516;42.050;21.516;2023-04-25T04:08:02;10.07;;;5.85;;
80195;SDS011;69516;42.050;21.516;2023-04-25T04:10:28;11.80;;;6.43;;
80195;SDS011;69516;42.050;21.516;2023-04-25T04:12:54;9.95;;;6.22;;
80195;SDS011;69516;42.050;21.516;2023-04-25T04:15:20;12.15;;;7.22;;
80195;SDS011;69516;42.050;21.516;2023-04-25T04:17:47;9.60;;;6.45;;
80195;SDS011;69516;42.050;21.516;2023-04-25T04:20:14;9.10;;;5.85;;
80195;SDS011;69516;42.050;21.516;2023-04-25T04:22:40;10.18;;;6.68;;
80195;SDS011;69516;42.050;21.516;2023-04-25T04:25:06;11.35;;;7.50;;
80195;SDS011;69516;42.050;21.516;2023-04-25T04:27:32;11.77;;;7.68;;
80195;SDS011;69516;42.050;21.516;2023-04-25T04:29:59;10.77;;;6.90;;
80195;SDS011;69516;42.050;21.516;2023-04-25T04:32:26;13.23;;;8.20;;
80195;SDS011;69516;42.050;21.516;2023-04-25T04:34:53;12.07;;;7.95;;
80195;SDS011;69516;42.050;21.516;2023-04-25T04:37:20;12.48;;;7.60;;
80195;SDS011;69516;42.050;21.516;2023-04-25T04:39:46;21.00;;;13.95;;
80195;SDS011;69516;42.050;21.516;2023-04-25T04:42:12;10.82;;;7.20;;
80195;SDS011;69516;42.050;21.516;2023-04-25T04:44:39;11.82;;;7.70;;
80195;SDS011;69516;42.050;21.516;2023-04-25T04:47:05;11.88;;;8.30;;
80195;SDS011;69516;42.050;21.516;2023-04-25T04:49:31;12.93;;;8.05;;
80195;SDS011;69516;42.050;21.516;2023-04-25T04:51:57;12.52;;;8.77;;
80195;SDS011;69516;42.050;21.516;2023-04-25T04:54:24;12.55;;;8.75;;
80195;SDS011;69516;42.050;21.516;2023-04-25T04:56:52;15.23;;;10.02;;
80195;SDS011;69516;42.050;21.516;2023-04-25T04:59:18;16.60;;;10.43;;
80195;SDS011;69516;42.050;21.516;2023-04-25T05:01:44;16.17;;;11.27;;
80195;SDS011;69516;42.050;21.516;2023-04-25T05:04:11;15.27;;;10.52;;
80195;SDS011;69516;42.050;21.516;2023-04-25T05:06:37;16.30;;;11.27;;
80195;SDS011;69516;42.050;21.516;2023-04-25T05:09:03;17.08;;;10.35;;
80195;SDS011;69516;42.050;21.516;2023-04-25T05:11:29;16.30;;;9.85;;
80195;SDS011;69516;42.050;21.516;2023-04-25T05:13:56;13.75;;;10.05;;
80195;SDS011;69516;42.050;21.516;2023-04-25T05:16:22;18.02;;;11.43;;
80195;SDS011;69516;42.050;21.516;2023-04-25T05:18:48;16.83;;;10.65;;
80195;SDS011;69516;42.050;21.516;2023-04-25T05:21:14;17.00;;;11.55;;
80195;SDS011;69516;42.050;21.516;2023-04-25T05:23:41;20.15;;;12.93;;
80195;SDS011;69516;42.050;21.516;2023-04-25T05:26:07;18.02;;;11.95;;
80195;SDS011;69516;42.050;21.516;2023-04-25T05:28:38;17.92;;;12.32;;
80195;SDS011;69516;42.050;21.516;2023-04-25T05:31:07;17.25;;;12.45;;
80195;SDS011;69516;42.050;21.516;2023-04-25T05:33:34;18.23;;;12.70;;
80195;SDS011;69516;42.050;21.516;2023-04-25T05:36:01;16.85;;;12.73;;
80195;SDS011;69516;42.050;21.516;2023-04-25T05:38:27;19.50;;;13.68;;
80195;SDS011;69516;42.050;21.516;2023-04-25T05:40:53;16.42;;;11.43;;
80195;SDS011;69516;42.050;21.516;2023-04-25T05:43:19;15.85;;;11.63;;
80195;SDS011;69516;42.050;21.516;2023-04-25T05:48:13;18.48;;;13.35;;
80195;SDS011;69516;42.050;21.516;2023-04-25T05:50:39;20.77;;;14.35;;
80195;SDS011;69516;42.050;21.516;2023-04-25T05:53:05;23.83;;;16.02;;
80195;SDS011;69516;42.050;21.516;2023-04-25T05:55:31;18.27;;;13.75;;
80195;SDS011;69516;42.050;21.516;2023-04-25T05:57:59;20.33;;;14.60;;
80195;SDS011;69516;42.050;21.516;2023-04-25T06:00:25;23.80;;;15.70;;
80195;SDS011;69516;42.050;21.516;2023-04-25T06:02:51;19.80;;;15.40;;
80195;SDS011;69516;42.050;21.516;2023-04-25T06:05:17;22.13;;;16.20;;
80195;SDS011;69516;42.050;21.516;2023-04-25T06:07:43;23.58;;;16.10;;
80195;SDS011;69516;42.050;21.516;2023-04-25T06:10:09;25.10;;;17.48;;
80195;SDS011;69516;42.050;21.516;2023-04-25T06:12:35;19.52;;;14.63;;
80195;SDS011;69516;42.050;21.516;2023-04-25T06:15:03;19.85;;;14.15;;
80195;SDS011;69516;42.050;21.516;2023-04-25T06:17:29;20.77;;;14.65;;
80195;SDS011;69516;42.050;21.516;2023-04-25T06:19:55;19.70;;;14.95;;
80195;SDS011;69516;42.050;21.516;2023-04-25T06:22:21;20.70;;;14.32;;
80195;SDS011;69516;42.050;21.516;2023-04-25T06:24:47;20.20;;;15.13;;
80195;SDS011;69516;42.050;21.516;2023-04-25T06:27:14;18.63;;;14.05;;
80195;SDS011;69516;42.050;21.516;2023-04-25T06:29:40;17.65;;;12.80;;
80195;SDS011;69516;42.050;21.516;2023-04-25T06:32:06;18.92;;;12.93;;
80195;SDS011;69516;42.050;21.516;2023-04-25T06:34:33;14.00;;;10.85;;
80195;SDS011;69516;42.050;21.516;2023-04-25T06:36:59;14.27;;;11.15;;
80195;SDS011;69516;42.050;21.516;2023-04-25T06:39:25;15.18;;;11.63;;
80195;SDS011;69516;42.050;21.516;2023-04-25T06:41:51;15.57;;;11.18;;
80195;SDS011;69516;42.050;21.516;2023-04-25T06:44:18;13.73;;;10.13;;
80195;SDS011;69516;42.050;21.516;2023-04-25T06:46:44;12.32;;;9.95;;
80195;SDS011;69516;42.050;21.516;2023-04-25T06:49:10;12.50;;;10.02;;
80195;SDS011;69516;42.050;21.516;2023-04-25T06:51:36;13.63;;;9.82;;
80195;SDS011;69516;42.050;21.516;2023-04-25T06:54:02;12.45;;;9.50;;
80195;SDS011;69516;42.050;21.516;2023-04-25T06:56:30;12.93;;;10.48;;
80195;SDS011;69516;42.050;21.516;2023-04-25T06:58:56;11.98;;;9.13;;
80195;SDS011;69516;42.050;21.516;2023-04-25T07:01:22;11.73;;;9.13;;
80195;SDS011;69516;42.050;21.516;2023-04-25T07:03:48;14.00;;;9.55;;
80195;SDS011;69516;42.050;21.516;2023-04-25T07:06:14;12.48;;;9.18;;
80195;SDS011;69516;42.050;21.516;2023-04-25T07:08:49;11.38;;;8.90;;
80195;SDS011;69516;42.050;21.516;2023-04-25T07:13:47;14.07;;;10.38;;
80195;SDS011;69516;42.050;21.516;2023-04-25T07:16:13;13.15;;;10.38;;
80195;SDS011;69516;42.050;21.516;2023-04-25T07:18:45;12.52;;;10.00;;
80195;SDS011;69516;42.050;21.516;2023-04-25T07:21:11;11.65;;;9.90;;
80195;SDS011;69516;42.050;21.516;2023-04-25T07:23:37;12.85;;;9.27;;
80195;SDS011;69516;42.050;21.516;2023-04-25T07:26:05;11.63;;;9.20;;
80195;SDS011;69516;42.050;21.516;2023-04-25T07:28:31;11.95;;;8.98;;
80195;SDS011;69516;42.050;21.516;2023-04-25T07:30:57;12.70;;;9.77;;
80195;SDS011;69516;42.050;21.516;2023-04-25T07:33:23;12.88;;;9.57;;
80195;SDS011;69516;42.050;21.516;2023-04-25T07:35:50;11.60;;;9.98;;
80195;SDS011;69516;42.050;21.516;2023-04-25T07:38:16;12.43;;;9.38;;
80195;SDS011;69516;42.050;21.516;2023-04-25T07:40:42;9.50;;;7.70;;
80195;SDS011;69516;42.050;21.516;2023-04-25T07:43:08;11.00;;;7.68;;
80195;SDS011;69516;42.050;21.516;2023-04-25T07:45:34;10.57;;;7.97;;
80195;SDS011;69516;42.050;21.516;2023-04-25T07:48:00;13.23;;;8.65;;
80195;SDS011;69516;42.050;21.516;2023-04-25T07:50:37;9.60;;;7.07;;
80195;SDS011;69516;42.050;21.516;2023-04-25T07:53:03;15.05;;;9.07;;
80195;SDS011;69516;42.050;21.516;2023-04-25T07:55:29;10.80;;;8.02;;
80195;SDS011;69516;42.050;21.516;2023-04-25T07:57:55;10.40;;;7.60;;
80195;SDS011;69516;42.050;21.516;2023-04-25T08:00:22;14.18;;;8.52;;
80195;SDS011;69516;42.050;21.516;2023-04-25T08:02:49;12.35;;;8.43;;
80195;SDS011;69516;42.050;21.516;2023-04-25T08:05:18;11.85;;;8.07;;
80195;SDS011;69516;42.050;21.516;2023-04-25T08:07:44;10.52;;;7.00;;
80195;SDS011;69516;42.050;21.516;2023-04-25T08:10:10;8.95;;;6.20;;
80195;SDS011;69516;42.050;21.516;2023-04-25T08:12:37;9.95;;;7.15;;
80195;SDS011;69516;42.050;21.516;2023-04-25T08:15:03;11.27;;;6.90;;
80195;SDS011;69516;42.050;21.516;2023-04-25T08:17:29;8.23;;;6.32;;
80195;SDS011;69516;42.050;21.516;2023-04-25T08:19:55;8.82;;;6.65;;
80195;SDS011;69516;42.050;21.516;2023-04-25T08:22:22;9.38;;;7.35;;
80195;SDS011;69516;42.050;21.516;2023-04-25T08:24:48;11.30;;;7.65;;
80195;SDS011;69516;42.050;21.516;2023-04-25T08:27:14;9.00;;;6.22;;
80195;SDS011;69516;42.050;21.516;2023-04-25T08:29:41;12.20;;;6.25;;
80195;SDS011;69516;42.050;21.516;2023-04-25T08:32:07;8.32;;;5.47;;
80195;SDS011;69516;42.050;21.516;2023-04-25T08:34:33;8.48;;;5.70;;
80195;SDS011;69516;42.050;21.516;2023-04-25T08:37:01;9.55;;;6.22;;
80195;SDS011;69516;42.050;21.516;2023-04-25T08:39:29;9.25;;;6.30;;
80195;SDS011;69516;42.050;21.516;2023-04-25T08:41:55;11.13;;;6.18;;
80195;SDS011;69516;42.050;21.516;2023-04-25T08:44:22;7.00;;;5.18;;
80195;SDS011;69516;42.050;21.516;2023-04-25T08:46:48;8.10;;;5.38;;
80195;SDS011;69516;42.050;21.516;2023-04-25T08:49:15;9.27;;;4.68;;
80195;SDS011;69516;42.050;21.516;2023-04-25T08:51:46;8.27;;;4.65;;
80195;SDS011;69516;42.050;21.516;2023-04-25T08:54:14;8.32;;;5.25;;
80195;SDS011;69516;42.050;21.516;2023-04-25T08:56:41;9.48;;;5.63;;
80195;SDS011;69516;42.050;21.516;2023-04-25T09:01:35;8.68;;;5.57;;
80195;SDS011;69516;42.050;21.516;2023-04-25T09:04:01;9.00;;;4.38;;
80195;SDS011;69516;42.050;21.516;2023-04-25T09:06:30;7.93;;;4.40;;
80195;SDS011;69516;42.050;21.516;2023-04-25T09:09:01;7.65;;;4.35;;
80195;SDS011;69516;42.050;21.516;2023-04-25T09:11:28;7.60;;;4.28;;
80195;SDS011;69516;42.050;21.516;2023-04-25T09:14:09;6.20;;;3.78;;
80195;SDS011;69516;42.050;21.516;2023-04-25T09:16:36;7.05;;;3.38;;
80195;SDS011;69516;42.050;21.516;2023-04-25T09:21:48;7.13;;;4.53;;
80195;SDS011;69516;42.050;21.516;2023-04-25T09:24:15;11.48;;;4.50;;
80195;SDS011;69516;42.050;21.516;2023-04-25T09:26:41;8.32;;;3.80;;
80195;SDS011;69516;42.050;21.516;2023-04-25T09:29:08;7.28;;;3.78;;
80195;SDS011;69516;42.050;21.516;2023-04-25T09:31:35;7.32;;;4.40;;
80195;SDS011;69516;42.050;21.516;2023-04-25T09:34:02;9.10;;;4.75;;
80195;SDS011;69516;42.050;21.516;2023-04-25T09:36:31;9.10;;;4.78;;
80195;SDS011;69516;42.050;21.516;2023-04-25T09:38:57;9.23;;;4.60;;
80195;SDS011;69516;42.050;21.516;2023-04-25T09:43:51;9.70;;;5.22;;
80195;SDS011;69516;42.050;21.516;2023-04-25T09:46:23;8.65;;;4.80;;
80195;SDS011;69516;42.050;21.516;2023-04-25T09:48:50;9.52;;;5.15;;
80195;SDS011;69516;42.050;21.516;2023-04-25T09:51:18;11.52;;;6.68;;
80195;SDS011;69516;42.050;21.516;2023-04-25T09:53:45;13.18;;;6.32;;
80195;SDS011;69516;42.050;21.516;2023-04-25T09:56:14;8.45;;;4.78;;
80195;SDS011;69516;42.050;21.516;2023-04-25T09:58:41;9.85;;;5.20;;
80195;SDS011;69516;42.050;21.516;2023-04-25T10:01:09;10.68;;;5.25;;
80195;SDS011;69516;42.050;21.516;2023-04-25T10:06:02;10.82;;;4.95;;
80195;SDS011;69516;42.050;21.516;2023-04-25T10:08:36;10.52;;;5.70;;
80195;SDS011;69516;42.050;21.516;2023-04-25T10:11:03;8.95;;;5.65;;
80195;SDS011;69516;42.050;21.516;2023-04-25T10:13:30;10.07;;;5.63;;
80195;SDS011;69516;42.050;21.516;2023-04-25T10:16:00;8.43;;;5.13;;
80195;SDS011;69516;42.050;21.516;2023-04-25T10:18:29;8.85;;;5.00;;
80195;SDS011;69516;42.050;21.516;2023-04-25T10:21:00;9.35;;;4.95;;
80195;SDS011;69516;42.050;21.516;2023-04-25T10:23:27;10.00;;;4.82;;
80195;SDS011;69516;42.050;21.516;2023-04-25T10:25:54;9.23;;;4.55;;
80195;SDS011;69516;42.050;21.516;2023-04-25T10:28:21;7.78;;;4.05;;
80195;SDS011;69516;42.050;21.516;2023-04-25T10:33:29;8.25;;;4.30;;
80195;SDS011;69516;42.050;21.516;2023-04-25T10:35:57;7.75;;;4.10;;
80195;SDS011;69516;42.050;21.516;2023-04-25T10:38:24;9.05;;;5.68;;
80195;SDS011;69516;42.050;21.516;2023-04-25T10:41:07;7.60;;;3.92;;
80195;SDS011;69516;42.050;21.516;2023-04-25T10:43:35;6.75;;;3.53;;
80195;SDS011;69516;42.050;21.516;2023-04-25T10:46:03;7.55;;;3.67;;
80195;SDS011;69516;42.050;21.516;2023-04-25T10:48:38;6.68;;;3.40;;
80195;SDS011;69516;42.050;21.516;2023-04-25T10:51:10;8.00;;;3.38;;
80195;SDS011;69516;42.050;21.516;2023-04-25T10:53:36;9.60;;;3.00;;
80195;SDS011;69516;42.050;21.516;2023-04-25T10:58:51;6.28;;;2.72;;
80195;SDS011;69516;42.050;21.516;2023-04-25T11:01:20;5.70;;;2.40;;
80195;SDS011;69516;42.050;21.516;2023-04-25T11:03:47;6.55;;;2.65;;
80195;SDS011;69516;42.050;21.516;2023-04-25T11:08:48;5.68;;;2.35;;
80195;SDS011;69516;42.050;21.516;2023-04-25T11:11:15;6.63;;;2.42;;
80195;SDS011;69516;42.050;21.516;2023-04-25T11:13:42;4.60;;;2.08;;
80195;SDS011;69516;42.050;21.516;2023-04-25T11:16:08;6.20;;;2.10;;
80195;SDS011;69516;42.050;21.516;2023-04-25T11:18:34;6.07;;;1.90;;
80195;SDS011;69516;42.050;21.516;2023-04-25T11:21:00;4.93;;;1.50;;
80195;SDS011;69516;42.050;21.516;2023-04-25T11:23:26;4.85;;;1.70;;
80195;SDS011;69516;42.050;21.516;2023-04-25T11:25:53;6.13;;;1.77;;
80195;SDS011;69516;42.050;21.516;2023-04-25T11:28:22;4.50;;;1.63;;
80195;SDS011;69516;42.050;21.516;2023-04-25T11:30:49;5.35;;;1.67;;
80195;SDS011;69516;42.050;21.516;2023-04-25T11:33:15;5.95;;;1.85;;
80195;SDS011;69516;42.050;21.516;2023-04-25T11:35:42;4.30;;;1.48;;
80195;SDS011;69516;42.050;21.516;2023-04-25T11:38:08;3.97;;;1.02;;
80195;SDS011;69516;42.050;21.516;2023-04-25T11:40:35;3.92;;;1.00;;
80195;SDS011;69516;42.050;21.516;2023-04-25T11:43:01;3.75;;;1.27;;
80195;SDS011;69516;42.050;21.516;2023-04-25T11:45:27;6.80;;;1.20;;
80195;SDS011;69516;42.050;21.516;2023-04-25T11:47:55;3.55;;;1.00;;
80195;SDS011;69516;42.050;21.516;2023-04-25T11:50:21;3.80;;;1.05;;
80195;SDS011;69516;42.050;21.516;2023-04-25T11:52:47;3.33;;;0.98;;
80195;SDS011;69516;42.050;21.516;2023-04-25T11:55:14;3.30;;;0.70;;
80195;SDS011;69516;42.050;21.516;2023-04-25T11:57:41;2.80;;;0.80;;
80195;SDS011;69516;42.050;21.516;2023-04-25T12:02:36;3.13;;;0.80;;
80195;SDS011;69516;42.050;21.516;2023-04-25T12:05:06;4.25;;;0.90;;
80195;SDS011;69516;42.050;21.516;2023-04-25T12:07:33;4.47;;;1.00;;
80195;SDS011;69516;42.050;21.516;2023-04-25T12:09:59;3.58;;;0.80;;
80195;SDS011;69516;42.050;21.516;2023-04-25T12:12:32;7.50;;;0.73;;
80195;SDS011;69516;42.050;21.516;2023-04-25T12:15:07;3.90;;;1.00;;
80195;SDS011;69516;42.050;21.516;2023-04-25T12:17:34;2.45;;;0.70;;
80195;SDS011;69516;42.050;21.516;2023-04-25T12:20:06;2.47;;;0.88;;
80195;SDS011;69516;42.050;21.516;2023-04-25T12:22:32;3.63;;;0.95;;
80195;SDS011;69516;42.050;21.516;2023-04-25T12:24:59;3.40;;;0.93;;
80195;SDS011;69516;42.050;21.516;2023-04-25T12:27:30;6.10;;;1.40;;
80195;SDS011;69516;42.050;21.516;2023-04-25T12:29:56;5.35;;;1.50;;
80195;SDS011;69516;42.050;21.516;2023-04-25T12:32:23;5.72;;;1.23;;
80195;SDS011;69516;42.050;21.516;2023-04-25T12:34:50;7.30;;;1.27;;
80195;SDS011;69516;42.050;21.516;2023-04-25T12:37:16;5.00;;;1.55;;
80195;SDS011;69516;42.050;21.516;2023-04-25T12:39:42;4.63;;;2.15;;
80195;SDS011;69516;42.050;21.516;2023-04-25T12:42:09;9.35;;;3.80;;
80195;SDS011;69516;42.050;21.516;2023-04-25T12:44:38;6.05;;;2.25;;
80195;SDS011;69516;42.050;21.516;2023-04-25T12:47:05;7.32;;;2.15;;
80195;SDS011;69516;42.050;21.516;2023-04-25T12:49:31;3.95;;;0.90;;
80195;SDS011;69516;42.050;21.516;2023-04-25T12:51:58;3.95;;;1.00;;
80195;SDS011;69516;42.050;21.516;2023-04-25T12:54:24;4.53;;;1.00;;
80195;SDS011;69516;42.050;21.516;2023-04-25T12:56:51;2.95;;;0.82;;
80195;SDS011;69516;42.050;21.516;2023-04-25T12:59:17;5.63;;;1.45;;
80195;SDS011;69516;42.050;21.516;2023-04-25T13:01:45;4.43;;;1.00;;
80195;SDS011;69516;42.050;21.516;2023-04-25T13:04:11;3.35;;;0.80;;
80195;SDS011;69516;42.050;21.516;2023-04-25T13:06:37;8.23;;;1.10;;
80195;SDS011;69516;42.050;21.516;2023-04-25T13:09:03;4.38;;;1.02;;
80195;SDS011;69516;42.050;21.516;2023-04-25T13:11:29;6.60;;;0.95;;
80195;SDS011;69516;42.050;21.516;2023-04-25T13:13:56;3.75;;;0.80;;
80195;SDS011;69516;42.050;21.516;2023-04-25T13:16:22;4.03;;;1.00;;
80195;SDS011;69516;42.050;21.516;2023-04-25T13:18:48;1.88;;;0.73;;
80195;SDS011;69516;42.050;21.516;2023-04-25T13:21:14;3.80;;;0.70;;
80195;SDS011;69516;42.050;21.516;2023-04-25T13:23:40;2.72;;;0.77;;
80195;SDS011;69516;42.050;21.516;2023-04-25T13:26:11;3.70;;;0.88;;
80195;SDS011;69516;42.050;21.516;2023-04-25T13:28:37;3.88;;;0.90;;
80195;SDS011;69516;42.050;21.516;2023-04-25T13:31:05;3.60;;;0.93;;
80195;SDS011;69516;42.050;21.516;2023-04-25T13:33:31;2.70;;;0.80;;
80195;SDS011;69516;42.050;21.516;2023-04-25T13:35:57;3.28;;;1.05;;
80195;SDS011;69516;42.050;21.516;2023-04-25T13:38:25;2.70;;;0.80;;
80195;SDS011;69516;42.050;21.516;2023-04-25T13:40:51;2.33;;;0.75;;
80195;SDS011;69516;42.050;21.516;2023-04-25T13:43:20;2.47;;;0.90;;
80195;SDS011;69516;42.050;21.516;2023-04-25T13:45:49;2.80;;;0.80;;
80195;SDS011;69516;42.050;21.516;2023-04-25T13:48:16;2.58;;;0.90;;
80195;SDS011;69516;42.050;21.516;2023-04-25T13:50:42;3.42;;;0.80;;
80195;SDS011;69516;42.050;21.516;2023-04-25T13:53:10;3.70;;;0.90;;
80195;SDS011;69516;42.050;21.516;2023-04-25T13:55:37;4.28;;;0.80;;
80195;SDS011;69516;42.050;21.516;2023-04-25T13:58:03;4.82;;;1.10;;
80195;SDS011;69516;42.050;21.516;2023-04-25T14:00:38;4.38;;;1.10;;
80195;SDS011;69516;42.050;21.516;2023-04-25T14:03:04;4.50;;;0.98;;
80195;SDS011;69516;42.050;21.516;2023-04-25T14:05:32;4.35;;;1.50;;
80195;SDS011;69516;42.050;21.516;2023-04-25T14:08:02;4.05;;;0.90;;
80195;SDS011;69516;42.050;21.516;2023-04-25T14:10:28;3.75;;;0.90;;
80195;SDS011;69516;42.050;21.516;2023-04-25T14:12:54;4.65;;;1.20;;
80195;SDS011;69516;42.050;21.516;2023-04-25T14:15:21;4.18;;;1.00;;
80195;SDS011;69516;42.050;21.516;2023-04-25T14:17:47;3.50;;;1.05;;
80195;SDS011;69516;42.050;21.516;2023-04-25T14:20:13;4.10;;;1.20;;
80195;SDS011;69516;42.050;21.516;2023-04-25T14:22:39;4.30;;;1.30;;
80195;SDS011;69516;42.050;21.516;2023-04-25T14:25:08;4.28;;;1.52;;
80195;SDS011;69516;42.050;21.516;2023-04-25T14:27:35;6.53;;;1.83;;
80195;SDS011;69516;42.050;21.516;2023-04-25T14:30:01;6.22;;;2.00;;
80195;SDS011;69516;42.050;21.516;2023-04-25T14:32:27;4.18;;;1.10;;
80195;SDS011;69516;42.050;21.516;2023-04-25T14:34:53;3.55;;;1.35;;
80195;SDS011;69516;42.050;21.516;2023-04-25T14:37:20;3.28;;;1.10;;
80195;SDS011;69516;42.050;21.516;2023-04-25T14:39:46;4.60;;;1.33;;
80195;SDS011;69516;42.050;21.516;2023-04-25T14:42:12;4.65;;;1.23;;
80195;SDS011;69516;42.050;21.516;2023-04-25T14:44:38;4.57;;;1.00;;
80195;SDS011;69516;42.050;21.516;2023-04-25T14:47:04;7.07;;;3.47;;
80195;SDS011;69516;42.050;21.516;2023-04-25T14:49:31;8.07;;;2.97;;